createdAt,value
2018-10-02T00:00:18.787Z,1.57
2018-10-02T00:02:48.302Z,5.77
2018-10-02T00:05:17.913Z,1.83
2018-10-02T00:07:47.348Z,3.23
2018-10-02T00:10:16.799Z,2.23
2018-10-02T00:12:51.471Z,3.30
2018-10-02T00:15:20.995Z,3.27
2018-10-02T00:17:50.519Z,4.90
2018-10-02T00:20:19.979Z,2.57
2018-10-02T00:22:49.610Z,2.63
2018-10-02T00:25:18.960Z,3.47
2018-10-02T00:27:50.188Z,4.20
2018-10-02T00:30:19.694Z,3.43
2018-10-02T00:32:54.113Z,1.70
2018-10-02T00:35:23.499Z,2.53
2018-10-02T00:37:52.960Z,2.90
2018-10-02T00:40:23.817Z,3.17
2018-10-02T00:42:53.223Z,4.80
2018-10-02T00:45:22.589Z,1.70
2018-10-02T00:47:51.942Z,1.20
2018-10-02T00:50:21.785Z,5.10
2018-10-02T00:52:57.791Z,4.53
2018-10-02T00:55:27.144Z,3.77
2018-10-02T00:57:56.546Z,4.10
2018-10-02T01:00:26.165Z,5.40
2018-10-02T01:02:56.875Z,6.97
2018-10-02T01:05:26.324Z,4.77
2018-10-02T01:07:55.677Z,4.53
2018-10-02T01:10:25.229Z,4.13
2018-10-02T01:12:54.611Z,3.03
2018-10-02T01:15:24.019Z,2.80
2018-10-02T01:17:57.588Z,4.30
2018-10-02T01:20:27.323Z,2.97
2018-10-02T01:22:56.698Z,3.50
2018-10-02T01:25:26.102Z,5.63
2018-10-02T01:27:55.442Z,4.80
2018-10-02T01:30:24.877Z,3.43
2018-10-02T01:32:54.262Z,3.57
2018-10-02T01:35:23.639Z,5.37
2018-10-02T01:37:53.021Z,5.17
2018-10-02T01:40:22.469Z,3.23
2018-10-02T01:42:51.812Z,5.33
2018-10-02T01:45:21.138Z,4.23
2018-10-02T01:47:50.581Z,7.70
2018-10-02T01:50:19.890Z,6.80
2018-10-02T01:52:49.209Z,11.83
2018-10-02T01:55:19.705Z,14.33
2018-10-02T01:57:49.118Z,11.87
2018-10-02T02:03:03.749Z,16.07
2018-10-02T02:05:33.136Z,16.60
2018-10-02T02:08:02.481Z,14.03
2018-10-02T02:10:31.801Z,12.93
2018-10-02T02:13:01.117Z,16.53
2018-10-02T02:15:31.166Z,16.43
2018-10-02T02:18:00.466Z,15.33
2018-10-02T02:20:29.830Z,11.17
2018-10-02T02:22:59.153Z,16.40
2018-10-02T02:25:29.872Z,11.73
2018-10-02T02:27:59.231Z,14.30
2018-10-02T02:30:28.660Z,15.17
2018-10-02T02:32:57.996Z,16.07
2018-10-02T02:35:27.361Z,15.27
2018-10-02T02:37:56.704Z,13.57
2018-10-02T02:40:26.601Z,12.63
2018-10-02T02:42:55.940Z,12.23
2018-10-02T02:45:25.280Z,12.60
2018-10-02T02:47:59.841Z,13.77
2018-10-02T02:50:34.973Z,12.53
2018-10-02T02:53:07.016Z,11.43
2018-10-02T02:55:36.674Z,12.57
2018-10-02T02:58:06.023Z,15.10
2018-10-02T03:00:35.377Z,12.77
2018-10-02T03:03:04.718Z,12.87
2018-10-02T03:05:34.040Z,14.13
2018-10-02T03:08:03.348Z,12.57
2018-10-02T03:10:32.681Z,11.07
2018-10-02T03:13:02.024Z,12.07
2018-10-02T03:15:31.342Z,14.10
2018-10-02T03:18:00.754Z,14.30
2018-10-02T03:20:30.108Z,14.60
2018-10-02T03:22:59.451Z,14.77
2018-10-02T03:25:28.747Z,15.70
2018-10-02T03:27:58.063Z,9.47
2018-10-02T03:30:27.397Z,12.13
2018-10-02T03:32:56.744Z,13.23
2018-10-02T03:35:26.106Z,18.10
2018-10-02T03:37:55.578Z,14.57
2018-10-02T03:40:24.776Z,19.90
2018-10-02T03:42:54.083Z,14.20
2018-10-02T03:45:23.379Z,14.53
2018-10-02T03:47:52.704Z,17.40
2018-10-02T03:50:21.966Z,18.97
2018-10-02T03:52:51.287Z,17.00
2018-10-02T03:55:20.583Z,15.73
2018-10-02T03:57:49.926Z,16.50
2018-10-02T04:00:19.394Z,19.50
2018-10-02T04:02:48.717Z,19.67
2018-10-02T04:05:18.009Z,19.50
2018-10-02T04:07:47.335Z,18.00
2018-10-02T04:10:16.645Z,17.40
2018-10-02T04:12:45.983Z,20.87
2018-10-02T04:15:15.303Z,19.73
2018-10-02T04:17:44.616Z,20.43
2018-10-02T04:20:14.014Z,19.13
2018-10-02T04:22:43.308Z,21.97
2018-10-02T04:25:12.596Z,22.53
2018-10-02T04:27:41.937Z,19.97
2018-10-02T04:30:11.204Z,18.10
2018-10-02T04:32:40.515Z,20.73
2018-10-02T04:35:09.823Z,22.57
2018-10-02T04:37:39.561Z,18.30
2018-10-02T04:40:08.878Z,15.73
2018-10-02T04:42:38.230Z,18.23
2018-10-02T04:45:07.718Z,19.37
2018-10-02T04:47:37.009Z,20.03
2018-10-02T04:50:06.369Z,23.10
2018-10-02T04:52:35.675Z,18.07
2018-10-02T04:55:05.050Z,21.20
2018-10-02T04:57:34.322Z,19.37
2018-10-02T05:00:03.648Z,18.03
2018-10-02T05:02:32.935Z,17.80
2018-10-02T05:05:02.228Z,20.23
2018-10-02T05:07:31.550Z,18.50
2018-10-02T05:10:00.915Z,18.50
2018-10-02T05:12:30.241Z,18.47
2018-10-02T05:14:59.521Z,20.97
2018-10-02T05:17:28.821Z,20.83
2018-10-02T05:19:58.104Z,15.73
2018-10-02T05:22:27.431Z,19.83
2018-10-02T05:24:56.707Z,21.63
2018-10-02T05:27:26.083Z,19.33
2018-10-02T05:29:55.436Z,18.40
2018-10-02T05:32:24.753Z,20.20
2018-10-02T05:34:54.120Z,15.33
2018-10-02T05:37:23.367Z,17.20
2018-10-02T05:39:52.697Z,25.43
2018-10-02T05:42:22.151Z,22.50
2018-10-02T05:44:51.540Z,25.30
2018-10-02T05:47:20.891Z,19.00
2018-10-02T05:49:50.259Z,30.43
2018-10-02T05:52:19.631Z,25.50
2018-10-02T05:54:48.976Z,20.77
2018-10-02T05:57:18.331Z,25.70
2018-10-02T05:59:47.745Z,27.30
2018-10-02T06:02:17.287Z,24.93
2018-10-02T06:04:46.644Z,30.73
2018-10-02T06:07:15.979Z,26.60
2018-10-02T06:09:45.352Z,27.30
2018-10-02T06:12:14.779Z,23.20
2018-10-02T06:14:44.101Z,19.03
2018-10-02T06:17:13.411Z,23.67
2018-10-02T06:19:42.748Z,20.33
2018-10-02T06:22:12.177Z,22.57
2018-10-02T06:24:41.785Z,20.73
2018-10-02T06:27:11.431Z,26.73
2018-10-02T06:29:40.776Z,19.63
2018-10-02T06:32:10.095Z,17.10
2018-10-02T06:34:39.423Z,19.13
2018-10-02T06:37:08.731Z,23.83
2018-10-02T06:39:38.096Z,18.07
2018-10-02T06:42:07.412Z,19.43
2018-10-02T06:44:36.786Z,19.27
2018-10-02T06:47:06.342Z,20.53
2018-10-02T06:49:35.646Z,17.93
2018-10-02T06:52:05.045Z,18.07
2018-10-02T06:54:34.215Z,16.80
2018-10-02T06:57:03.556Z,17.63
2018-10-02T06:59:32.855Z,18.73
2018-10-02T07:02:02.143Z,14.60
2018-10-02T07:04:31.436Z,12.90
2018-10-02T07:07:00.803Z,15.67
2018-10-02T07:09:30.104Z,12.70
2018-10-02T07:11:59.418Z,14.40
2018-10-02T07:14:28.769Z,15.13
2018-10-02T07:16:58.039Z,15.50
2018-10-02T07:19:27.344Z,14.80
2018-10-02T07:21:56.742Z,12.57
2018-10-02T07:24:26.032Z,13.83
2018-10-02T07:26:55.621Z,14.33
2018-10-02T07:29:24.829Z,14.40
2018-10-02T07:31:54.120Z,14.37
2018-10-02T07:34:23.473Z,13.77
2018-10-02T07:36:52.813Z,15.53
2018-10-02T07:39:22.269Z,14.10
2018-10-02T07:41:51.583Z,14.00
2018-10-02T07:44:20.876Z,11.13
2018-10-02T07:46:50.165Z,10.23
2018-10-02T07:49:19.627Z,13.60
2018-10-02T07:51:48.939Z,13.50
2018-10-02T07:54:18.258Z,9.63
2018-10-02T07:56:47.641Z,12.93
2018-10-02T07:59:17.153Z,11.87
2018-10-02T08:01:46.499Z,11.57
2018-10-02T08:04:15.927Z,10.57
2018-10-02T08:06:45.203Z,9.43
2018-10-02T08:09:14.487Z,10.60
2018-10-02T08:11:43.944Z,11.60
2018-10-02T08:14:13.231Z,10.97
2018-10-02T08:16:42.532Z,8.63
2018-10-02T08:19:11.832Z,11.17
2018-10-02T08:21:41.128Z,7.43
2018-10-02T08:24:10.418Z,13.83
2018-10-02T08:26:39.754Z,8.87
2018-10-02T08:29:09.149Z,8.33
2018-10-02T08:31:38.461Z,11.20
2018-10-02T08:34:07.896Z,9.80
2018-10-02T08:36:37.320Z,11.23
2018-10-02T08:39:09.451Z,6.83
2018-10-02T08:41:39.017Z,10.30
2018-10-02T08:44:08.431Z,7.17
2018-10-02T08:46:37.743Z,8.23
2018-10-02T08:49:07.052Z,9.83
2018-10-02T08:51:36.756Z,15.40
2018-10-02T08:54:06.158Z,7.03
2018-10-02T08:56:35.394Z,7.93
2018-10-02T08:59:04.734Z,8.87
2018-10-02T09:01:34.094Z,5.97
2018-10-02T09:04:03.398Z,8.43
2018-10-02T09:06:32.862Z,6.73
2018-10-02T09:09:02.131Z,10.73
2018-10-02T09:11:31.464Z,5.93
2018-10-02T09:14:00.849Z,5.17
2018-10-02T09:16:30.246Z,6.17
2018-10-02T09:18:59.522Z,8.30
2018-10-02T09:21:28.837Z,12.27
2018-10-02T09:23:58.383Z,6.33
2018-10-02T09:26:27.615Z,7.63
2018-10-02T09:28:56.937Z,8.50
2018-10-02T09:31:31.496Z,6.73
2018-10-02T09:34:05.959Z,8.47
2018-10-02T09:36:40.544Z,6.43
2018-10-02T09:39:15.486Z,6.03
2018-10-02T09:41:50.226Z,6.77
2018-10-02T09:44:19.540Z,6.53
2018-10-02T09:46:48.888Z,6.40
2018-10-02T09:49:18.233Z,6.97
2018-10-02T09:51:47.617Z,7.27
2018-10-02T09:54:17.061Z,8.90
2018-10-02T09:56:46.678Z,8.40
2018-10-02T09:59:16.709Z,8.13
2018-10-02T10:01:51.260Z,11.50
2018-10-02T10:04:20.684Z,6.63
2018-10-02T10:06:49.964Z,9.50
2018-10-02T10:09:19.279Z,9.73
2018-10-02T10:11:48.651Z,7.97
2018-10-02T10:14:18.110Z,7.13
2018-10-02T10:16:47.489Z,7.37
2018-10-02T10:19:16.794Z,5.53
2018-10-02T10:21:47.120Z,6.83
2018-10-02T10:24:16.544Z,8.27
2018-10-02T10:26:45.909Z,9.90
2018-10-02T10:29:15.272Z,4.00
2018-10-02T10:31:44.655Z,6.47
2018-10-02T10:34:14.011Z,6.30
2018-10-02T10:36:43.354Z,4.50
2018-10-02T10:39:12.758Z,6.63
2018-10-02T10:41:42.082Z,8.03
2018-10-02T10:44:11.410Z,5.73
2018-10-02T10:46:40.844Z,4.23
2018-10-02T10:49:10.020Z,6.03
2018-10-02T10:51:39.447Z,6.47
2018-10-02T10:54:08.763Z,6.17
2018-10-02T10:56:38.063Z,7.57
2018-10-02T10:59:07.527Z,6.03
2018-10-02T11:01:36.760Z,5.70
2018-10-02T11:04:06.096Z,7.50
2018-10-02T11:06:35.457Z,7.80
2018-10-02T11:09:07.542Z,6.67
2018-10-02T11:11:36.865Z,8.77
2018-10-02T11:14:06.553Z,8.30
2018-10-02T11:16:35.898Z,11.50
2018-10-02T11:19:05.246Z,11.20
2018-10-02T11:21:34.584Z,8.33
2018-10-02T11:24:03.963Z,7.87
2018-10-02T11:26:33.221Z,7.50
2018-10-02T11:29:02.540Z,7.83
2018-10-02T11:31:31.897Z,6.50
2018-10-02T11:34:01.241Z,6.73
2018-10-02T11:36:30.586Z,10.67
2018-10-02T11:38:59.978Z,9.43
2018-10-02T11:41:29.345Z,11.00
2018-10-02T11:43:58.743Z,8.83
2018-10-02T11:46:28.046Z,7.53
2018-10-02T11:48:57.422Z,6.20
2018-10-02T11:51:26.822Z,7.43
2018-10-02T11:53:56.200Z,11.23
2018-10-02T11:56:25.605Z,6.03
2018-10-02T11:58:55.041Z,8.27
2018-10-02T12:01:24.500Z,9.90
2018-10-02T12:03:53.779Z,6.47
2018-10-02T12:06:23.162Z,7.93
2018-10-02T12:08:52.725Z,7.03
2018-10-02T12:11:22.056Z,7.17
2018-10-02T12:13:51.571Z,8.37
2018-10-02T12:16:20.893Z,8.07
2018-10-02T12:18:50.316Z,10.27
2018-10-02T12:21:19.656Z,6.23
2018-10-02T12:23:49.036Z,7.43
2018-10-02T12:26:18.447Z,9.40
2018-10-02T12:28:48.067Z,7.33
2018-10-02T12:31:17.397Z,7.00
2018-10-02T12:33:46.759Z,5.50
2018-10-02T12:36:16.118Z,10.77
2018-10-02T12:38:45.505Z,9.63
2018-10-02T12:41:14.807Z,6.17
2018-10-02T12:43:44.130Z,5.13
2018-10-02T12:46:13.520Z,8.00
2018-10-02T12:48:42.773Z,3.97
2018-10-02T12:51:12.192Z,6.67
2018-10-02T12:53:41.821Z,4.60
2018-10-02T12:56:11.185Z,4.33
2018-10-02T12:58:40.866Z,3.97
2018-10-02T13:01:10.390Z,3.57
2018-10-02T13:03:39.700Z,6.63
2018-10-02T13:06:09.026Z,3.47
2018-10-02T13:08:38.526Z,4.17
2018-10-02T13:11:07.897Z,7.33
2018-10-02T13:13:37.456Z,6.27
2018-10-02T13:16:06.856Z,4.83
2018-10-02T13:18:36.250Z,3.70
2018-10-02T13:21:05.615Z,5.73
2018-10-02T13:23:35.005Z,5.97
2018-10-02T13:26:04.423Z,4.33
2018-10-02T13:28:33.772Z,3.83
2018-10-02T13:31:03.119Z,5.83
2018-10-02T13:33:32.468Z,3.47
2018-10-02T13:36:01.852Z,5.07
2018-10-02T13:38:31.275Z,5.97
2018-10-02T13:41:00.603Z,7.03
2018-10-02T13:43:29.939Z,8.33
2018-10-02T13:45:59.246Z,5.10
2018-10-02T13:48:28.571Z,4.60
2018-10-02T13:50:57.988Z,5.60
2018-10-02T13:53:27.343Z,5.60
2018-10-02T13:55:56.668Z,5.80
2018-10-02T13:58:25.994Z,4.20
2018-10-02T14:00:55.364Z,7.33
2018-10-02T14:03:24.668Z,6.47
2018-10-02T14:05:54.042Z,5.80
2018-10-02T14:08:23.515Z,4.27
2018-10-02T14:10:53.036Z,5.30
2018-10-02T14:13:22.379Z,5.37
2018-10-02T14:15:51.757Z,5.30
2018-10-02T14:18:21.440Z,6.10
2018-10-02T14:20:50.765Z,5.47
2018-10-02T14:23:20.155Z,4.53
2018-10-02T14:25:49.504Z,5.20
2018-10-02T14:28:18.945Z,7.07
2018-10-02T14:30:48.287Z,6.27
2018-10-02T14:33:17.627Z,5.87
2018-10-02T14:35:46.973Z,5.03
2018-10-02T14:38:16.346Z,3.67
2018-10-02T14:40:45.668Z,6.97
2018-10-02T14:43:15.038Z,4.47
2018-10-02T14:45:44.336Z,3.43
2018-10-02T14:48:13.671Z,3.87
2018-10-02T14:50:43.001Z,6.87
2018-10-02T14:53:12.384Z,3.23
2018-10-02T14:55:41.728Z,6.80
2018-10-02T14:58:11.374Z,5.13
2018-10-02T15:00:43.821Z,5.57
2018-10-02T15:03:13.519Z,2.97
2018-10-02T15:05:43.481Z,4.03
2018-10-02T15:08:13.215Z,4.00
2018-10-02T15:10:43.509Z,4.77
2018-10-02T15:13:19.117Z,4.57
2018-10-02T15:15:48.416Z,4.73
2018-10-02T15:18:17.790Z,5.83
2018-10-02T15:20:47.202Z,9.80
2018-10-02T15:23:16.509Z,5.87
2018-10-02T15:25:45.873Z,4.47
2018-10-02T15:28:15.282Z,4.33
2018-10-02T15:30:44.596Z,6.23
2018-10-02T15:33:13.950Z,5.67
2018-10-02T15:35:43.341Z,6.37
2018-10-02T15:38:12.776Z,3.93
2018-10-02T15:40:42.668Z,7.00
2018-10-02T15:43:12.185Z,5.27
2018-10-02T15:45:41.540Z,8.53
2018-10-02T15:48:10.899Z,6.57
2018-10-02T15:50:42.600Z,7.83
2018-10-02T15:53:11.944Z,6.20
2018-10-02T15:55:41.320Z,8.10
2018-10-02T15:58:10.660Z,4.40
2018-10-02T16:00:40.038Z,7.60
2018-10-02T16:03:09.796Z,3.97
2018-10-02T16:05:39.127Z,4.77
2018-10-02T16:08:08.709Z,5.77
2018-10-02T16:10:38.086Z,4.10
2018-10-02T16:13:07.903Z,8.23
2018-10-02T16:15:37.290Z,3.90
2018-10-02T16:18:06.900Z,6.27
2018-10-02T16:20:36.210Z,8.13
2018-10-02T16:23:05.685Z,6.90
2018-10-02T16:25:35.119Z,5.77
2018-10-02T16:28:04.486Z,6.93
2018-10-02T16:30:33.849Z,10.33
2018-10-02T16:33:03.165Z,5.30
2018-10-02T16:35:32.534Z,8.73
2018-10-02T16:38:01.949Z,5.97
2018-10-02T16:40:31.358Z,8.73
2018-10-02T16:43:00.674Z,6.07
2018-10-02T16:45:30.025Z,9.23
2018-10-02T16:47:59.584Z,5.30
2018-10-02T16:50:28.974Z,4.60
2018-10-02T16:52:58.436Z,7.33
2018-10-02T16:55:28.095Z,5.87
2018-10-02T16:57:57.648Z,9.57
2018-10-02T17:00:27.444Z,6.53
2018-10-02T17:02:56.928Z,13.07
2018-10-02T17:05:26.812Z,10.37
2018-10-02T17:07:56.183Z,9.17
2018-10-02T17:10:25.755Z,12.10
2018-10-02T17:12:55.067Z,10.73
2018-10-02T17:15:24.425Z,18.53
2018-10-02T17:17:53.776Z,10.27
2018-10-02T17:20:23.254Z,7.17
2018-10-02T17:22:52.602Z,9.97
2018-10-02T17:25:22.131Z,7.90
2018-10-02T17:27:51.464Z,5.73
2018-10-02T17:30:20.822Z,6.33
2018-10-02T17:32:50.153Z,7.00
2018-10-02T17:35:19.512Z,6.87
2018-10-02T17:37:48.946Z,5.00
2018-10-02T17:40:18.385Z,4.77
2018-10-02T17:42:47.732Z,7.87
2018-10-02T17:45:17.142Z,4.30
2018-10-02T17:47:46.565Z,5.23
2018-10-02T17:50:50.615Z,3.07
2018-10-02T17:53:56.188Z,3.63
2018-10-02T17:56:25.656Z,5.87
2018-10-02T17:58:55.093Z,4.60
2018-10-02T18:01:24.631Z,5.57
2018-10-02T18:03:55.091Z,5.03
2018-10-02T18:06:24.498Z,6.03
2018-10-02T18:08:53.930Z,3.27
2018-10-02T18:11:23.362Z,6.27
2018-10-02T18:13:52.740Z,4.77
2018-10-02T18:16:22.320Z,2.20
2018-10-02T18:18:51.789Z,2.70
2018-10-02T18:21:21.561Z,7.10
2018-10-02T18:23:51.111Z,3.37
2018-10-02T18:26:20.506Z,5.20
2018-10-02T18:28:50.085Z,6.47
2018-10-02T18:31:20.083Z,3.47
2018-10-02T18:33:49.555Z,4.63
2018-10-02T18:36:19.391Z,6.63
2018-10-02T18:38:48.962Z,3.47
2018-10-02T18:41:18.293Z,5.80
2018-10-02T18:43:48.353Z,3.67
2018-10-02T18:46:21.486Z,4.03
2018-10-02T18:48:51.255Z,4.00
2018-10-02T18:51:20.811Z,5.90
2018-10-02T18:53:50.575Z,4.67
2018-10-02T18:56:20.408Z,2.80
2018-10-02T18:58:49.800Z,4.77
2018-10-02T19:01:19.711Z,4.27
2018-10-02T19:03:49.539Z,4.57
2018-10-02T19:06:19.137Z,7.27
2018-10-02T19:08:53.878Z,4.00
2018-10-02T19:11:30.557Z,5.77
2018-10-02T19:14:00.082Z,4.73
2018-10-02T19:16:31.664Z,3.60
2018-10-02T19:19:01.437Z,4.67
2018-10-02T19:21:31.039Z,4.87
2018-10-02T19:24:03.269Z,5.17
2018-10-02T19:30:01.702Z,3.70
2018-10-02T19:32:31.167Z,4.90
2018-10-02T19:35:00.644Z,4.63
2018-10-02T19:37:35.391Z,3.70
2018-10-02T19:40:04.767Z,5.20
2018-10-02T19:42:34.109Z,3.60
2018-10-02T19:45:10.107Z,4.73
2018-10-02T19:47:39.748Z,4.03
2018-10-02T19:50:09.312Z,4.63
2018-10-02T19:52:38.833Z,5.40
2018-10-02T19:55:08.226Z,4.77
2018-10-02T19:57:37.711Z,6.20
2018-10-02T20:00:07.927Z,2.90
2018-10-02T20:02:37.357Z,5.00
2018-10-02T20:05:06.765Z,5.80
2018-10-02T20:07:36.245Z,5.90
2018-10-02T20:10:05.713Z,5.63
2018-10-02T20:12:35.255Z,4.47
2018-10-02T20:15:04.781Z,8.50
2018-10-02T20:17:34.147Z,6.77
2018-10-02T20:20:03.646Z,4.50
2018-10-02T20:22:34.292Z,6.73
2018-10-02T21:18:54.691Z,4.93
2018-10-02T21:21:23.970Z,4.23
2018-10-02T21:23:53.273Z,4.67
2018-10-02T21:26:22.633Z,5.53
2018-10-02T21:28:52.013Z,6.87
2018-10-02T21:31:21.405Z,4.50
2018-10-02T21:33:50.718Z,3.77
2018-10-02T21:36:20.107Z,6.30
2018-10-02T21:38:49.737Z,6.17
2018-10-02T21:41:19.139Z,5.90
2018-10-02T21:43:48.637Z,3.43
2018-10-02T21:46:18.143Z,7.60
2018-10-02T21:48:47.465Z,4.27
2018-10-02T21:51:16.885Z,6.80
2018-10-02T21:53:46.285Z,4.87
2018-10-02T21:56:15.705Z,6.33
2018-10-02T21:58:45.114Z,6.67
2018-10-02T22:01:14.450Z,4.17
2018-10-02T22:03:43.763Z,5.67
2018-10-02T22:06:13.122Z,4.53
2018-10-02T22:08:42.442Z,4.43
2018-10-02T22:11:11.907Z,6.13
2018-10-02T22:13:41.284Z,6.40
2018-10-02T22:16:10.781Z,4.90
2018-10-02T22:18:40.248Z,6.03
2018-10-02T22:21:09.589Z,4.30
2018-10-02T22:23:38.955Z,5.97
2018-10-02T22:26:08.239Z,3.83
2018-10-02T22:28:37.534Z,3.47
2018-10-02T22:31:06.818Z,4.90
2018-10-02T22:33:36.186Z,7.13
2018-10-02T22:36:05.474Z,6.00
2018-10-02T22:38:34.792Z,4.40
2018-10-02T22:41:04.106Z,4.23
2018-10-02T22:43:33.472Z,5.87
2018-10-02T22:46:02.747Z,5.53
2018-10-02T22:48:32.136Z,4.87
2018-10-02T22:51:01.495Z,7.10
2018-10-02T22:53:30.778Z,4.70
2018-10-02T22:56:00.105Z,6.30
2018-10-02T22:58:29.545Z,4.43
2018-10-02T23:00:58.813Z,5.47
2018-10-02T23:03:28.102Z,5.93
2018-10-02T23:05:57.417Z,4.97
2018-10-02T23:08:26.737Z,6.50
2018-10-02T23:10:56.012Z,7.60
2018-10-02T23:13:25.295Z,5.23
2018-10-02T23:15:54.627Z,8.13
2018-10-02T23:18:23.942Z,5.47
2018-10-02T23:20:53.238Z,6.03
2018-10-02T23:23:22.516Z,6.23
2018-10-02T23:25:51.833Z,6.30
2018-10-02T23:28:21.143Z,6.77
2018-10-02T23:30:51.006Z,6.30
2018-10-02T23:33:20.379Z,6.00
2018-10-02T23:35:49.649Z,4.57
2018-10-02T23:38:18.964Z,7.03
2018-10-02T23:40:48.248Z,6.87
2018-10-02T23:43:17.567Z,7.10
2018-10-02T23:45:46.862Z,3.50
2018-10-02T23:48:16.152Z,8.23
2018-10-02T23:50:45.418Z,7.83
2018-10-02T23:53:14.684Z,5.80
2018-10-02T23:55:43.982Z,7.63
2018-10-02T23:58:13.254Z,6.23
